EDFHLIRA

Guest
Details From EDFH - Frankfurt Hahn
To LIRA - Ciampino
Flight Number -
Tags Generated
Created
Modified
Stats Distance 536 nm / 993 km
Max Altitude 0 ft / 0 m
Waypoints 4
Social Downloads 0
Likes 0
Share VATSIM

Download

Looking for another format? Having issues loading an existing format? Contact us
Advertisement - Login to hide

Notes

Generated

Route

EDFH LUSIL R1815 LIRA

ID Type Via Altitude Latitude Longitude Leg Dist Tot Dist Heading (true) Name
O EDFH APT - 0 ft / 0 m 49.93139˚ 7.24688˚ - 0 nm - -
LUSIL FIX - 0 ft / 0 m 46.04306˚ 10.11667˚ 260 nm 260 nm 153° / 155° -
R1815 FIX - 0 ft / 0 m 41.80806˚ 12.58883˚ 275 nm 536 nm 156° / 158° -
O LIRA APT - 0 ft / 0 m 41.80806˚ 12.58883˚ 0 nm 536 nm 0° / 180° -

Altitude Profile

Advertisement - Login to hide

Weather


0- 5 10 15 20 25 30 35+ Temperature / ° C

Clouds and Precipitation
Forecast for 2017-12-12 00:00 UTC. Updated 9 minutes ago

Ground ~20,000 ft ~40,000 ft Winds

EDFH

Details ICAO EDFH (HHN)
Name Frankfurt Hahn
Region Germany - Civil
Timezone Europe/Berlin (UTC+1.0)
Stats Elevation 1,649 ft / 503 m (AMSL)
Location 49.945808° 7.261082°
Runways 1
Magnetic Variation 1.981° E

METAR

EDFH 112250Z 22017G28KT 9999 -RA BKN012 03/02 Q0984

Decode

TAF

TAF EDFH 111700Z 1118/1218 20015G30KT 9999 BKN030 PROB30 TEMPO 1118/1124 4000 SHRASN SCT020TCU BECMG 1200/1203 27015G30KT BKN012 PROB30 TEMPO 1200/1215 2000 SHSN BKN015TCU BECMG 1209/1212 27010KT SCT035

Decode

Departure Runways

ID Width Length Bearing (true) Bearing (mag) Surface Threshold Offset Overrun Length
03 148 ft / 45 m 12,457 ft / 3,797 m 32.37° 30.39° Asphalt 3,461 ft / 1,055 m 0 ft / 0 m
21 148 ft / 45 m 12,457 ft / 3,797 m 212.39° 210.41° Asphalt 984 ft / 300 m 0 ft / 0 m

LIRA

Details ICAO LIRA (CIA)
Name CIAMPINO
Region Italy
Timezone Europe/Rome (UTC+1.0)
Stats Elevation 427 ft / 130 m (AMSL)
Location 41.799228° 12.594917°
Runways 1
Magnetic Variation 3.057° E

METAR

LIRA 112250Z 16019G32KT 9999 BKN025 15/11 Q1009

Decode

TAF

TAF LIRA 111700Z 1118/1218 17015G25KT 8000 BKN020 BECMG 1206/1208 VRB06KT TEMPO 1212/1218 RA

Decode

Destination Runways

ID Width Length Bearing (true) Bearing (mag) Surface Threshold Offset Overrun Length
15 154 ft / 47 m 7,246 ft / 2,209 m 152.79° 149.73° Asphalt 0 ft / 0 m 0 ft / 0 m
33 154 ft / 47 m 7,246 ft / 2,209 m 332.80° 329.74° Asphalt 0 ft / 0 m 0 ft / 0 m

Approach Navaids

Runway Type Ident Frequency Range Bearing (true) Bearing (mag) Slope Elevation
15 Localiser CIA 109.90 MHz 18 nm / 33 km 152.81° 149.75° - 426 ft / 130 m (AMSL)
15 Glidescope CIA 109.90 MHz 10 nm / 19 km 152.79° 149.74° 3.00° 384 ft / 117 m (AMSL)

Popular Alternatives